Terminal Aerodrome Forecast
Issued by NWS Albany, NY

Home | Current Version | Previous Version | Text Only | Print | Product List | Glossary On
Versions: 1 2 3 4 5 6 7 8 9 10 11 12 13
000
FTUS41 KALY 260107 AAA
TAFGFL
TAF AMD
KGFL 260107Z 2601/2624 01007KT P6SM VCSH SCT008 OVC040
     FM260400 03007KT 3SM -RA BR SCT008 OVC025
     FM260600 04005KT 2SM -RA BR SCT004 OVC008
     FM261500 36006KT 5SM -SHRA BR SCT008 OVC015=

USA.gov is the U.S. government's official web portal to all federal, state and local government web resources and services.